sensor_id;sensor_type;location;lat;lon;timestamp;temperature;humidity
22161;DHT22;49035;48.812;11.762;2024-01-30T00:01:55;-2.10;99.90
22161;DHT22;49035;48.812;11.762;2024-01-30T00:04:20;-2.20;99.90
22161;DHT22;49035;48.812;11.762;2024-01-30T00:06:46;-2.30;99.90
22161;DHT22;49035;48.812;11.762;2024-01-30T00:09:12;-2.50;99.90
22161;DHT22;49035;48.812;11.762;2024-01-30T00:11:37;-2.60;99.90
22161;DHT22;49035;48.812;11.762;2024-01-30T00:14:04;-2.80;99.90
22161;DHT22;49035;48.812;11.762;2024-01-30T00:16:30;-2.80;99.90
22161;DHT22;49035;48.812;11.762;2024-01-30T00:18:55;-2.90;99.90
22161;DHT22;49035;48.812;11.762;2024-01-30T00:21:21;-3.00;99.90
22161;DHT22;49035;48.812;11.762;2024-01-30T00:23:47;-3.10;99.90
22161;DHT22;49035;48.812;11.762;2024-01-30T00:26:13;-3.20;99.90
22161;DHT22;49035;48.812;11.762;2024-01-30T00:28:40;-3.20;99.90
22161;DHT22;49035;48.812;11.762;2024-01-30T00:31:06;-3.00;99.90
22161;DHT22;49035;48.812;11.762;2024-01-30T00:33:31;-2.80;99.90
22161;DHT22;49035;48.812;11.762;2024-01-30T00:35:57;-2.70;99.90
22161;DHT22;49035;48.812;11.762;2024-01-30T00:38:22;-2.60;99.90
22161;DHT22;49035;48.812;11.762;2024-01-30T00:40:48;-2.50;99.90
22161;DHT22;49035;48.812;11.762;2024-01-30T00:43:14;-2.70;99.90
22161;DHT22;49035;48.812;11.762;2024-01-30T00:45:40;-2.60;99.90
22161;DHT22;49035;48.812;11.762;2024-01-30T00:48:06;-2.80;99.90
22161;DHT22;49035;48.812;11.762;2024-01-30T00:50:31;-2.90;99.90
22161;DHT22;49035;48.812;11.762;2024-01-30T00:52:57;-2.80;99.90
22161;DHT22;49035;48.812;11.762;2024-01-30T00:55:22;-2.70;99.90
22161;DHT22;49035;48.812;11.762;2024-01-30T00:57:48;-2.60;99.90
22161;DHT22;49035;48.812;11.762;2024-01-30T01:00:14;-2.70;99.90
22161;DHT22;49035;48.812;11.762;2024-01-30T01:02:42;-2.80;99.90
22161;DHT22;49035;48.812;11.762;2024-01-30T01:05:08;-2.90;99.90
22161;DHT22;49035;48.812;11.762;2024-01-30T01:07:34;-3.00;99.90
22161;DHT22;49035;48.812;11.762;2024-01-30T01:09:59;-2.90;99.90
22161;DHT22;49035;48.812;11.762;2024-01-30T01:12:25;-2.80;99.90
22161;DHT22;49035;48.812;11.762;2024-01-30T01:14:50;-2.60;99.90
22161;DHT22;49035;48.812;11.762;2024-01-30T01:17:16;-2.60;99.90
22161;DHT22;49035;48.812;11.762;2024-01-30T01:19:41;-2.70;99.90
22161;DHT22;49035;48.812;11.762;2024-01-30T01:22:07;-2.80;99.90
22161;DHT22;49035;48.812;11.762;2024-01-30T01:24:33;-2.90;99.90
22161;DHT22;49035;48.812;11.762;2024-01-30T01:26:59;-3.10;99.90
22161;DHT22;49035;48.812;11.762;2024-01-30T01:29:25;-3.10;99.90
22161;DHT22;49035;48.812;11.762;2024-01-30T01:31:57;-3.20;99.90
22161;DHT22;49035;48.812;11.762;2024-01-30T01:34:23;-3.30;99.90
22161;DHT22;49035;48.812;11.762;2024-01-30T01:36:49;-3.50;99.90
22161;DHT22;49035;48.812;11.762;2024-01-30T01:39:15;-3.50;99.90
22161;DHT22;49035;48.812;11.762;2024-01-30T01:41:41;-3.60;99.90
22161;DHT22;49035;48.812;11.762;2024-01-30T01:44:07;-3.60;99.90
22161;DHT22;49035;48.812;11.762;2024-01-30T01:46:33;-3.70;99.90
22161;DHT22;49035;48.812;11.762;2024-01-30T01:49:04;-3.70;99.90
22161;DHT22;49035;48.812;11.762;2024-01-30T01:51:31;-3.80;99.90
22161;DHT22;49035;48.812;11.762;2024-01-30T01:54:03;-3.90;99.90
22161;DHT22;49035;48.812;11.762;2024-01-30T01:56:29;-3.90;99.90
22161;DHT22;49035;48.812;11.762;2024-01-30T01:58:55;-3.90;99.90
22161;DHT22;49035;48.812;11.762;2024-01-30T02:01:25;-4.00;99.90
22161;DHT22;49035;48.812;11.762;2024-01-30T02:03:52;-4.20;99.90
22161;DHT22;49035;48.812;11.762;2024-01-30T02:06:18;-4.30;99.90
22161;DHT22;49035;48.812;11.762;2024-01-30T02:08:44;-4.40;99.90
22161;DHT22;49035;48.812;11.762;2024-01-30T02:11:10;-4.40;99.90
22161;DHT22;49035;48.812;11.762;2024-01-30T02:13:36;-4.50;99.90
22161;DHT22;49035;48.812;11.762;2024-01-30T02:16:02;-4.50;99.90
22161;DHT22;49035;48.812;11.762;2024-01-30T02:18:28;-4.50;99.90
22161;DHT22;49035;48.812;11.762;2024-01-30T02:20:56;-4.50;99.90
22161;DHT22;49035;48.812;11.762;2024-01-30T02:23:24;-4.50;99.90
22161;DHT22;49035;48.812;11.762;2024-01-30T02:25:50;-4.50;99.90
22161;DHT22;49035;48.812;11.762;2024-01-30T02:28:18;-4.50;99.90
22161;DHT22;49035;48.812;11.762;2024-01-30T02:30:45;-4.40;99.90
22161;DHT22;49035;48.812;11.762;2024-01-30T02:33:11;-4.30;99.90
22161;DHT22;49035;48.812;11.762;2024-01-30T02:35:37;-4.20;99.90
22161;DHT22;49035;48.812;11.762;2024-01-30T02:38:03;-4.20;99.90
22161;DHT22;49035;48.812;11.762;2024-01-30T02:40:29;-4.10;99.90
22161;DHT22;49035;48.812;11.762;2024-01-30T02:42:55;-4.20;99.90
22161;DHT22;49035;48.812;11.762;2024-01-30T02:45:21;-4.20;99.90
22161;DHT22;49035;48.812;11.762;2024-01-30T02:47:47;-4.10;99.90
22161;DHT22;49035;48.812;11.762;2024-01-30T02:50:12;-4.10;99.90
22161;DHT22;49035;48.812;11.762;2024-01-30T02:52:39;-4.10;99.90
22161;DHT22;49035;48.812;11.762;2024-01-30T02:55:05;-4.20;99.90
22161;DHT22;49035;48.812;11.762;2024-01-30T02:57:31;-4.30;99.90
22161;DHT22;49035;48.812;11.762;2024-01-30T02:59:56;-4.40;99.90
22161;DHT22;49035;48.812;11.762;2024-01-30T03:02:22;-4.50;99.90
22161;DHT22;49035;48.812;11.762;2024-01-30T03:04:47;-4.40;99.90
22161;DHT22;49035;48.812;11.762;2024-01-30T03:07:13;-4.30;99.90
22161;DHT22;49035;48.812;11.762;2024-01-30T03:09:39;-4.20;99.90
22161;DHT22;49035;48.812;11.762;2024-01-30T03:12:06;-4.20;99.90
22161;DHT22;49035;48.812;11.762;2024-01-30T03:14:31;-4.20;99.90
22161;DHT22;49035;48.812;11.762;2024-01-30T03:16:57;-4.00;99.90
22161;DHT22;49035;48.812;11.762;2024-01-30T03:19:23;-3.80;99.90
22161;DHT22;49035;48.812;11.762;2024-01-30T03:21:49;-3.30;99.90
22161;DHT22;49035;48.812;11.762;2024-01-30T03:24:15;-3.10;99.90
22161;DHT22;49035;48.812;11.762;2024-01-30T03:26:41;-3.20;99.90
22161;DHT22;49035;48.812;11.762;2024-01-30T03:29:07;-3.50;99.90
22161;DHT22;49035;48.812;11.762;2024-01-30T03:31:33;-3.70;99.90
22161;DHT22;49035;48.812;11.762;2024-01-30T03:33:58;-3.80;99.90
22161;DHT22;49035;48.812;11.762;2024-01-30T03:36:24;-3.90;99.90
22161;DHT22;49035;48.812;11.762;2024-01-30T03:38:49;-4.00;99.90
22161;DHT22;49035;48.812;11.762;2024-01-30T03:41:15;-4.20;99.90
22161;DHT22;49035;48.812;11.762;2024-01-30T03:43:41;-4.30;99.90
22161;DHT22;49035;48.812;11.762;2024-01-30T03:46:06;-4.40;99.90
22161;DHT22;49035;48.812;11.762;2024-01-30T03:48:32;-4.60;99.90
22161;DHT22;49035;48.812;11.762;2024-01-30T03:50:58;-4.40;99.90
22161;DHT22;49035;48.812;11.762;2024-01-30T03:53:23;-4.40;99.90
22161;DHT22;49035;48.812;11.762;2024-01-30T03:55:49;-4.40;99.90
22161;DHT22;49035;48.812;11.762;2024-01-30T03:58:14;-4.40;99.90
22161;DHT22;49035;48.812;11.762;2024-01-30T04:00:40;-4.30;99.90
22161;DHT22;49035;48.812;11.762;2024-01-30T04:03:06;-4.40;99.90
22161;DHT22;49035;48.812;11.762;2024-01-30T04:05:32;-4.50;99.90
22161;DHT22;49035;48.812;11.762;2024-01-30T04:07:58;-4.40;99.90
22161;DHT22;49035;48.812;11.762;2024-01-30T04:10:24;-4.30;99.90
22161;DHT22;49035;48.812;11.762;2024-01-30T04:12:50;-4.10;99.90
22161;DHT22;49035;48.812;11.762;2024-01-30T04:15:17;-4.10;99.90
22161;DHT22;49035;48.812;11.762;2024-01-30T04:17:43;-4.10;99.90
22161;DHT22;49035;48.812;11.762;2024-01-30T04:20:15;-4.20;99.90
22161;DHT22;49035;48.812;11.762;2024-01-30T04:22:43;-4.20;99.90
22161;DHT22;49035;48.812;11.762;2024-01-30T04:25:09;-4.00;99.90
22161;DHT22;49035;48.812;11.762;2024-01-30T04:27:34;-3.70;99.90
22161;DHT22;49035;48.812;11.762;2024-01-30T04:30:00;-3.60;99.90
22161;DHT22;49035;48.812;11.762;2024-01-30T04:32:25;-3.50;99.90
22161;DHT22;49035;48.812;11.762;2024-01-30T04:34:51;-3.60;99.90
22161;DHT22;49035;48.812;11.762;2024-01-30T04:37:16;-3.70;99.90
22161;DHT22;49035;48.812;11.762;2024-01-30T04:39:42;-3.70;99.90
22161;DHT22;49035;48.812;11.762;2024-01-30T04:42:08;-3.80;99.90
22161;DHT22;49035;48.812;11.762;2024-01-30T04:44:33;-4.00;99.90
22161;DHT22;49035;48.812;11.762;2024-01-30T04:46:59;-4.10;99.90
22161;DHT22;49035;48.812;11.762;2024-01-30T04:49:27;-4.20;99.90
22161;DHT22;49035;48.812;11.762;2024-01-30T04:51:52;-4.40;99.90
22161;DHT22;49035;48.812;11.762;2024-01-30T04:54:18;-4.40;99.90
22161;DHT22;49035;48.812;11.762;2024-01-30T04:56:45;-4.10;99.90
22161;DHT22;49035;48.812;11.762;2024-01-30T04:59:11;-4.30;99.90
22161;DHT22;49035;48.812;11.762;2024-01-30T05:01:37;-4.50;99.90
22161;DHT22;49035;48.812;11.762;2024-01-30T05:04:02;-4.60;99.90
22161;DHT22;49035;48.812;11.762;2024-01-30T05:06:29;-4.70;99.90
22161;DHT22;49035;48.812;11.762;2024-01-30T05:08:55;-4.70;99.90
22161;DHT22;49035;48.812;11.762;2024-01-30T05:11:20;-4.90;99.90
22161;DHT22;49035;48.812;11.762;2024-01-30T05:13:46;-5.00;99.90
22161;DHT22;49035;48.812;11.762;2024-01-30T05:16:12;-5.10;99.90
22161;DHT22;49035;48.812;11.762;2024-01-30T05:18:37;-5.30;99.90
22161;DHT22;49035;48.812;11.762;2024-01-30T05:21:03;-5.30;99.90
22161;DHT22;49035;48.812;11.762;2024-01-30T05:23:29;-5.20;99.90
22161;DHT22;49035;48.812;11.762;2024-01-30T05:25:54;-5.00;99.90
22161;DHT22;49035;48.812;11.762;2024-01-30T05:28:20;-4.80;99.90
22161;DHT22;49035;48.812;11.762;2024-01-30T05:30:45;-4.60;99.90
22161;DHT22;49035;48.812;11.762;2024-01-30T05:33:11;-4.40;99.90
22161;DHT22;49035;48.812;11.762;2024-01-30T05:35:37;-4.20;99.90
22161;DHT22;49035;48.812;11.762;2024-01-30T05:38:03;-4.20;99.90
22161;DHT22;49035;48.812;11.762;2024-01-30T05:40:30;-4.20;99.90
22161;DHT22;49035;48.812;11.762;2024-01-30T05:42:56;-4.30;99.90
22161;DHT22;49035;48.812;11.762;2024-01-30T05:45:21;-4.40;99.90
22161;DHT22;49035;48.812;11.762;2024-01-30T05:47:48;-4.50;99.90
22161;DHT22;49035;48.812;11.762;2024-01-30T05:50:14;-4.60;99.90
22161;DHT22;49035;48.812;11.762;2024-01-30T05:52:40;-4.70;99.90
22161;DHT22;49035;48.812;11.762;2024-01-30T05:55:06;-4.80;99.90
22161;DHT22;49035;48.812;11.762;2024-01-30T05:57:32;-4.80;99.90
22161;DHT22;49035;48.812;11.762;2024-01-30T05:59:58;-4.90;99.90
22161;DHT22;49035;48.812;11.762;2024-01-30T06:02:23;-4.70;99.90
22161;DHT22;49035;48.812;11.762;2024-01-30T06:04:49;-4.50;99.90
22161;DHT22;49035;48.812;11.762;2024-01-30T06:07:14;-4.20;99.90
22161;DHT22;49035;48.812;11.762;2024-01-30T06:09:40;-4.10;99.90
22161;DHT22;49035;48.812;11.762;2024-01-30T06:12:06;-4.20;99.90
22161;DHT22;49035;48.812;11.762;2024-01-30T06:14:32;-4.30;99.90
22161;DHT22;49035;48.812;11.762;2024-01-30T06:16:59;-4.50;99.90
22161;DHT22;49035;48.812;11.762;2024-01-30T06:19:24;-4.70;99.90
22161;DHT22;49035;48.812;11.762;2024-01-30T06:21:50;-4.60;99.90
22161;DHT22;49035;48.812;11.762;2024-01-30T06:24:15;-4.50;99.90
22161;DHT22;49035;48.812;11.762;2024-01-30T06:26:41;-4.40;99.90
22161;DHT22;49035;48.812;11.762;2024-01-30T06:29:07;-4.40;99.90
22161;DHT22;49035;48.812;11.762;2024-01-30T06:31:33;-4.10;99.90
22161;DHT22;49035;48.812;11.762;2024-01-30T06:33:58;-4.20;99.90
22161;DHT22;49035;48.812;11.762;2024-01-30T06:36:24;-4.00;99.90
22161;DHT22;49035;48.812;11.762;2024-01-30T06:38:49;-3.70;99.90
22161;DHT22;49035;48.812;11.762;2024-01-30T06:41:15;-3.50;99.90
22161;DHT22;49035;48.812;11.762;2024-01-30T06:43:41;-3.30;99.90
22161;DHT22;49035;48.812;11.762;2024-01-30T06:46:06;-3.40;99.90
22161;DHT22;49035;48.812;11.762;2024-01-30T06:48:32;-3.70;99.90
22161;DHT22;49035;48.812;11.762;2024-01-30T06:50:58;-3.80;99.90
22161;DHT22;49035;48.812;11.762;2024-01-30T06:53:23;-3.90;99.90
22161;DHT22;49035;48.812;11.762;2024-01-30T06:55:51;-4.10;99.90
22161;DHT22;49035;48.812;11.762;2024-01-30T06:58:17;-4.20;99.90
22161;DHT22;49035;48.812;11.762;2024-01-30T07:00:42;-3.90;99.90
22161;DHT22;49035;48.812;11.762;2024-01-30T07:03:08;-3.90;99.90
22161;DHT22;49035;48.812;11.762;2024-01-30T07:05:33;-3.90;99.90
22161;DHT22;49035;48.812;11.762;2024-01-30T07:07:59;-3.80;99.90
22161;DHT22;49035;48.812;11.762;2024-01-30T07:10:24;-3.80;99.90
22161;DHT22;49035;48.812;11.762;2024-01-30T07:12:50;-3.70;99.90
22161;DHT22;49035;48.812;11.762;2024-01-30T07:15:16;-3.80;99.90
22161;DHT22;49035;48.812;11.762;2024-01-30T07:17:45;-3.80;99.90
22161;DHT22;49035;48.812;11.762;2024-01-30T07:20:11;-3.80;99.90
22161;DHT22;49035;48.812;11.762;2024-01-30T07:22:37;-3.60;99.90
22161;DHT22;49035;48.812;11.762;2024-01-30T07:25:02;-3.40;99.90
22161;DHT22;49035;48.812;11.762;2024-01-30T07:27:28;-3.30;99.90
22161;DHT22;49035;48.812;11.762;2024-01-30T07:29:54;-3.10;99.90
22161;DHT22;49035;48.812;11.762;2024-01-30T07:32:19;-2.90;99.90
22161;DHT22;49035;48.812;11.762;2024-01-30T07:34:45;-2.60;99.90
22161;DHT22;49035;48.812;11.762;2024-01-30T07:37:10;-2.40;99.90
22161;DHT22;49035;48.812;11.762;2024-01-30T07:39:38;-2.40;99.90
22161;DHT22;49035;48.812;11.762;2024-01-30T07:42:04;-2.40;99.90
22161;DHT22;49035;48.812;11.762;2024-01-30T07:44:29;-2.40;99.90
22161;DHT22;49035;48.812;11.762;2024-01-30T07:46:55;-2.20;99.90
22161;DHT22;49035;48.812;11.762;2024-01-30T07:49:21;-2.10;99.90
22161;DHT22;49035;48.812;11.762;2024-01-30T07:51:46;-2.10;99.90
22161;DHT22;49035;48.812;11.762;2024-01-30T07:54:12;-2.00;99.90
22161;DHT22;49035;48.812;11.762;2024-01-30T07:56:37;-2.00;99.90
22161;DHT22;49035;48.812;11.762;2024-01-30T07:59:03;-1.70;99.90
22161;DHT22;49035;48.812;11.762;2024-01-30T08:01:29;-1.60;99.90
22161;DHT22;49035;48.812;11.762;2024-01-30T08:03:55;-1.50;99.90
22161;DHT22;49035;48.812;11.762;2024-01-30T08:06:20;-1.50;99.90
22161;DHT22;49035;48.812;11.762;2024-01-30T08:08:46;-1.20;99.90
22161;DHT22;49035;48.812;11.762;2024-01-30T08:11:12;-1.20;99.90
22161;DHT22;49035;48.812;11.762;2024-01-30T08:13:37;-1.10;99.90
22161;DHT22;49035;48.812;11.762;2024-01-30T08:16:03;-1.00;99.90
22161;DHT22;49035;48.812;11.762;2024-01-30T08:18:29;-1.00;99.90
22161;DHT22;49035;48.812;11.762;2024-01-30T08:20:55;-1.20;99.90
22161;DHT22;49035;48.812;11.762;2024-01-30T08:23:20;-0.90;99.90
22161;DHT22;49035;48.812;11.762;2024-01-30T08:25:46;-0.90;99.90
22161;DHT22;49035;48.812;11.762;2024-01-30T08:28:12;-0.80;99.90
22161;DHT22;49035;48.812;11.762;2024-01-30T08:30:37;-0.70;99.90
22161;DHT22;49035;48.812;11.762;2024-01-30T08:33:04;-0.60;99.90
22161;DHT22;49035;48.812;11.762;2024-01-30T08:35:30;-0.60;99.90
22161;DHT22;49035;48.812;11.762;2024-01-30T08:37:59;-0.50;99.90
22161;DHT22;49035;48.812;11.762;2024-01-30T08:40:24;-0.40;99.90
22161;DHT22;49035;48.812;11.762;2024-01-30T08:42:50;-0.30;99.90
22161;DHT22;49035;48.812;11.762;2024-01-30T08:45:15;-0.30;99.90
22161;DHT22;49035;48.812;11.762;2024-01-30T08:47:41;-0.20;99.90
22161;DHT22;49035;48.812;11.762;2024-01-30T08:50:07;-0.20;99.90
22161;DHT22;49035;48.812;11.762;2024-01-30T08:52:33;0.00;99.90
22161;DHT22;49035;48.812;11.762;2024-01-30T08:54:59;0.00;99.90
22161;DHT22;49035;48.812;11.762;2024-01-30T08:57:25;0.00;99.90
22161;DHT22;49035;48.812;11.762;2024-01-30T08:59:54;0.20;99.90
22161;DHT22;49035;48.812;11.762;2024-01-30T09:02:20;0.20;99.90
22161;DHT22;49035;48.812;11.762;2024-01-30T09:04:46;0.30;99.90
22161;DHT22;49035;48.812;11.762;2024-01-30T09:07:11;0.30;99.90
22161;DHT22;49035;48.812;11.762;2024-01-30T09:09:39;0.40;99.90
22161;DHT22;49035;48.812;11.762;2024-01-30T09:12:06;0.40;99.90
22161;DHT22;49035;48.812;11.762;2024-01-30T09:14:35;0.40;99.90
22161;DHT22;49035;48.812;11.762;2024-01-30T09:17:01;0.50;99.90
22161;DHT22;49035;48.812;11.762;2024-01-30T09:19:28;0.40;99.90
22161;DHT22;49035;48.812;11.762;2024-01-30T09:21:54;0.50;99.90
22161;DHT22;49035;48.812;11.762;2024-01-30T09:24:19;0.60;99.90
22161;DHT22;49035;48.812;11.762;2024-01-30T09:26:45;0.70;99.90
22161;DHT22;49035;48.812;11.762;2024-01-30T09:29:10;0.70;99.90
22161;DHT22;49035;48.812;11.762;2024-01-30T09:31:36;0.70;99.90
22161;DHT22;49035;48.812;11.762;2024-01-30T09:34:02;0.70;99.90
22161;DHT22;49035;48.812;11.762;2024-01-30T09:36:27;0.70;99.90
22161;DHT22;49035;48.812;11.762;2024-01-30T09:38:53;1.10;99.90
22161;DHT22;49035;48.812;11.762;2024-01-30T09:41:19;1.10;99.90
22161;DHT22;49035;48.812;11.762;2024-01-30T09:43:47;1.10;99.90
22161;DHT22;49035;48.812;11.762;2024-01-30T09:46:17;1.20;99.90
22161;DHT22;49035;48.812;11.762;2024-01-30T09:48:46;1.30;99.90
22161;DHT22;49035;48.812;11.762;2024-01-30T09:51:14;1.40;99.90
22161;DHT22;49035;48.812;11.762;2024-01-30T09:53:41;1.60;99.90
22161;DHT22;49035;48.812;11.762;2024-01-30T09:56:07;1.60;99.90
22161;DHT22;49035;48.812;11.762;2024-01-30T09:58:33;1.70;99.90
22161;DHT22;49035;48.812;11.762;2024-01-30T10:00:58;1.80;99.90
22161;DHT22;49035;48.812;11.762;2024-01-30T10:03:24;1.70;99.90
22161;DHT22;49035;48.812;11.762;2024-01-30T10:05:51;2.00;99.90
22161;DHT22;49035;48.812;11.762;2024-01-30T10:08:20;2.10;99.90
22161;DHT22;49035;48.812;11.762;2024-01-30T10:10:47;2.20;99.90
22161;DHT22;49035;48.812;11.762;2024-01-30T10:13:12;2.10;99.90
22161;DHT22;49035;48.812;11.762;2024-01-30T10:15:38;2.30;99.90
22161;DHT22;49035;48.812;11.762;2024-01-30T10:18:04;2.40;99.90
22161;DHT22;49035;48.812;11.762;2024-01-30T10:20:32;2.40;99.90
22161;DHT22;49035;48.812;11.762;2024-01-30T10:22:58;2.40;99.90
22161;DHT22;49035;48.812;11.762;2024-01-30T10:25:25;2.40;99.90
22161;DHT22;49035;48.812;11.762;2024-01-30T10:27:55;2.50;99.90
22161;DHT22;49035;48.812;11.762;2024-01-30T10:30:21;2.70;99.90
22161;DHT22;49035;48.812;11.762;2024-01-30T10:32:47;2.60;99.90
22161;DHT22;49035;48.812;11.762;2024-01-30T10:35:12;2.80;99.90
22161;DHT22;49035;48.812;11.762;2024-01-30T10:37:38;2.90;99.90
22161;DHT22;49035;48.812;11.762;2024-01-30T10:40:04;2.90;99.90
22161;DHT22;49035;48.812;11.762;2024-01-30T10:42:33;3.10;99.90
22161;DHT22;49035;48.812;11.762;2024-01-30T10:47:29;3.20;99.90
22161;DHT22;49035;48.812;11.762;2024-01-30T10:49:55;3.40;99.90
22161;DHT22;49035;48.812;11.762;2024-01-30T10:52:23;3.40;99.90
22161;DHT22;49035;48.812;11.762;2024-01-30T10:54:54;3.60;99.90
22161;DHT22;49035;48.812;11.762;2024-01-30T10:57:23;3.80;99.90
22161;DHT22;49035;48.812;11.762;2024-01-30T10:59:49;3.90;99.90
22161;DHT22;49035;48.812;11.762;2024-01-30T11:02:16;4.00;99.90
22161;DHT22;49035;48.812;11.762;2024-01-30T11:04:42;4.10;99.90
22161;DHT22;49035;48.812;11.762;2024-01-30T11:07:19;4.50;99.90
22161;DHT22;49035;48.812;11.762;2024-01-30T11:12:16;4.50;99.90
22161;DHT22;49035;48.812;11.762;2024-01-30T11:14:41;4.60;99.90
22161;DHT22;49035;48.812;11.762;2024-01-30T11:17:09;4.80;99.90
22161;DHT22;49035;48.812;11.762;2024-01-30T11:19:37;4.90;99.90
22161;DHT22;49035;48.812;11.762;2024-01-30T11:22:03;5.00;99.90
22161;DHT22;49035;48.812;11.762;2024-01-30T11:24:30;5.30;99.90
22161;DHT22;49035;48.812;11.762;2024-01-30T11:26:56;5.50;99.90
22161;DHT22;49035;48.812;11.762;2024-01-30T11:29:29;5.50;99.90
22161;DHT22;49035;48.812;11.762;2024-01-30T11:31:56;5.60;99.90
22161;DHT22;49035;48.812;11.762;2024-01-30T11:34:23;5.40;99.90
22161;DHT22;49035;48.812;11.762;2024-01-30T11:36:52;5.30;99.90
22161;DHT22;49035;48.812;11.762;2024-01-30T11:39:25;5.20;99.90
22161;DHT22;49035;48.812;11.762;2024-01-30T11:41:51;5.00;99.90
22161;DHT22;49035;48.812;11.762;2024-01-30T11:44:18;5.10;99.90
22161;DHT22;49035;48.812;11.762;2024-01-30T11:46:46;5.30;99.90
22161;DHT22;49035;48.812;11.762;2024-01-30T11:49:12;5.50;99.90
22161;DHT22;49035;48.812;11.762;2024-01-30T11:51:37;5.40;99.90
22161;DHT22;49035;48.812;11.762;2024-01-30T11:54:03;5.10;99.90
22161;DHT22;49035;48.812;11.762;2024-01-30T11:56:29;5.30;99.90
22161;DHT22;49035;48.812;11.762;2024-01-30T11:58:54;5.30;99.90
22161;DHT22;49035;48.812;11.762;2024-01-30T12:01:20;5.40;99.90
22161;DHT22;49035;48.812;11.762;2024-01-30T12:03:50;5.70;99.90
22161;DHT22;49035;48.812;11.762;2024-01-30T12:06:16;5.80;99.90
22161;DHT22;49035;48.812;11.762;2024-01-30T12:08:42;5.70;99.90
22161;DHT22;49035;48.812;11.762;2024-01-30T12:11:07;5.60;99.90
22161;DHT22;49035;48.812;11.762;2024-01-30T12:13:34;5.90;99.90
22161;DHT22;49035;48.812;11.762;2024-01-30T12:18:27;6.20;99.90
22161;DHT22;49035;48.812;11.762;2024-01-30T12:21:00;6.80;99.90
22161;DHT22;49035;48.812;11.762;2024-01-30T12:23:27;6.40;99.90
22161;DHT22;49035;48.812;11.762;2024-01-30T12:25:53;6.60;99.90
22161;DHT22;49035;48.812;11.762;2024-01-30T12:28:20;6.50;99.90
22161;DHT22;49035;48.812;11.762;2024-01-30T12:30:45;6.60;99.90
22161;DHT22;49035;48.812;11.762;2024-01-30T12:33:19;6.90;99.90
22161;DHT22;49035;48.812;11.762;2024-01-30T12:35:46;7.00;99.90
22161;DHT22;49035;48.812;11.762;2024-01-30T12:38:13;7.20;99.90
22161;DHT22;49035;48.812;11.762;2024-01-30T12:40:39;7.20;99.90
22161;DHT22;49035;48.812;11.762;2024-01-30T12:43:05;7.10;99.90
22161;DHT22;49035;48.812;11.762;2024-01-30T12:45:30;7.20;99.90
22161;DHT22;49035;48.812;11.762;2024-01-30T12:47:56;7.40;99.90
22161;DHT22;49035;48.812;11.762;2024-01-30T12:50:22;7.40;99.90
22161;DHT22;49035;48.812;11.762;2024-01-30T12:52:48;7.40;99.90
22161;DHT22;49035;48.812;11.762;2024-01-30T12:55:13;7.70;99.90
22161;DHT22;49035;48.812;11.762;2024-01-30T12:57:39;7.80;99.90
22161;DHT22;49035;48.812;11.762;2024-01-30T13:00:05;8.10;99.90
22161;DHT22;49035;48.812;11.762;2024-01-30T13:02:33;8.10;99.90
22161;DHT22;49035;48.812;11.762;2024-01-30T13:05:03;8.20;99.90
22161;DHT22;49035;48.812;11.762;2024-01-30T13:07:29;8.10;99.90
22161;DHT22;49035;48.812;11.762;2024-01-30T13:09:54;8.00;99.90
22161;DHT22;49035;48.812;11.762;2024-01-30T13:12:20;8.10;99.90
22161;DHT22;49035;48.812;11.762;2024-01-30T13:14:46;8.20;99.90
22161;DHT22;49035;48.812;11.762;2024-01-30T13:17:11;8.10;99.90
22161;DHT22;49035;48.812;11.762;2024-01-30T13:19:37;8.10;99.90
22161;DHT22;49035;48.812;11.762;2024-01-30T13:22:02;8.00;99.90
22161;DHT22;49035;48.812;11.762;2024-01-30T13:24:28;8.00;99.90
22161;DHT22;49035;48.812;11.762;2024-01-30T13:26:54;8.20;99.90
22161;DHT22;49035;48.812;11.762;2024-01-30T13:29:20;8.30;99.90
22161;DHT22;49035;48.812;11.762;2024-01-30T13:31:45;8.30;99.90
22161;DHT22;49035;48.812;11.762;2024-01-30T13:34:12;8.30;99.90
22161;DHT22;49035;48.812;11.762;2024-01-30T13:36:39;8.20;99.90
22161;DHT22;49035;48.812;11.762;2024-01-30T13:39:05;8.20;99.90
22161;DHT22;49035;48.812;11.762;2024-01-30T13:41:35;8.20;99.90
22161;DHT22;49035;48.812;11.762;2024-01-30T13:44:01;8.30;99.90
22161;DHT22;49035;48.812;11.762;2024-01-30T13:46:29;8.40;99.90
22161;DHT22;49035;48.812;11.762;2024-01-30T13:48:55;8.30;99.90
22161;DHT22;49035;48.812;11.762;2024-01-30T13:51:20;8.20;99.90
22161;DHT22;49035;48.812;11.762;2024-01-30T13:53:46;8.40;99.90
22161;DHT22;49035;48.812;11.762;2024-01-30T13:56:11;8.30;99.90
22161;DHT22;49035;48.812;11.762;2024-01-30T13:58:37;8.40;99.90
22161;DHT22;49035;48.812;11.762;2024-01-30T14:01:03;8.30;99.90
22161;DHT22;49035;48.812;11.762;2024-01-30T14:03:28;8.20;99.90
22161;DHT22;49035;48.812;11.762;2024-01-30T14:05:54;8.10;99.90
22161;DHT22;49035;48.812;11.762;2024-01-30T14:08:20;7.90;99.90
22161;DHT22;49035;48.812;11.762;2024-01-30T14:10:49;7.60;99.90
22161;DHT22;49035;48.812;11.762;2024-01-30T14:13:14;7.40;99.90
22161;DHT22;49035;48.812;11.762;2024-01-30T14:15:40;7.40;99.90
22161;DHT22;49035;48.812;11.762;2024-01-30T14:18:05;7.20;99.90
22161;DHT22;49035;48.812;11.762;2024-01-30T14:20:33;7.10;99.90
22161;DHT22;49035;48.812;11.762;2024-01-30T14:22:59;7.00;99.90
22161;DHT22;49035;48.812;11.762;2024-01-30T14:25:24;6.90;99.90
22161;DHT22;49035;48.812;11.762;2024-01-30T14:27:51;6.90;99.90
22161;DHT22;49035;48.812;11.762;2024-01-30T14:30:17;6.50;99.90
22161;DHT22;49035;48.812;11.762;2024-01-30T14:32:43;6.60;99.90
22161;DHT22;49035;48.812;11.762;2024-01-30T14:35:10;6.60;99.90
22161;DHT22;49035;48.812;11.762;2024-01-30T14:37:37;6.50;99.90
22161;DHT22;49035;48.812;11.762;2024-01-30T14:40:03;6.50;99.90
22161;DHT22;49035;48.812;11.762;2024-01-30T14:42:29;6.50;99.90
22161;DHT22;49035;48.812;11.762;2024-01-30T14:44:57;6.50;99.90
22161;DHT22;49035;48.812;11.762;2024-01-30T14:47:22;6.60;99.90
22161;DHT22;49035;48.812;11.762;2024-01-30T14:49:48;6.60;99.90
22161;DHT22;49035;48.812;11.762;2024-01-30T14:52:14;6.60;99.90
22161;DHT22;49035;48.812;11.762;2024-01-30T14:54:40;6.70;99.90
22161;DHT22;49035;48.812;11.762;2024-01-30T14:57:06;6.70;99.90
22161;DHT22;49035;48.812;11.762;2024-01-30T14:59:31;6.70;99.90
22161;DHT22;49035;48.812;11.762;2024-01-30T15:01:57;6.70;99.90
22161;DHT22;49035;48.812;11.762;2024-01-30T15:04:22;6.80;99.90
22161;DHT22;49035;48.812;11.762;2024-01-30T15:06:49;6.70;99.90
22161;DHT22;49035;48.812;11.762;2024-01-30T15:09:15;6.60;99.90
22161;DHT22;49035;48.812;11.762;2024-01-30T15:11:43;6.60;99.90
22161;DHT22;49035;48.812;11.762;2024-01-30T15:14:09;6.60;99.90
22161;DHT22;49035;48.812;11.762;2024-01-30T15:16:35;6.50;99.90
22161;DHT22;49035;48.812;11.762;2024-01-30T15:19:01;6.50;99.90
22161;DHT22;49035;48.812;11.762;2024-01-30T15:21:27;6.50;99.90
22161;DHT22;49035;48.812;11.762;2024-01-30T15:23:54;6.30;99.90